This is the latest recevied weather packets stored in our database for station/object VK3ABC-13. If no packets are shown the sender has not sent any weather packets the latest 10 day(s).
| Time | Temp. | Humidity | Pressure | Rain* | Wind** | Luminosity | Snow |
|---|---|---|---|---|---|---|---|
| 1777729816 | 18.89° C | 67% | 1011 hPa | 0 mm | - | 0 W/m² | - |
| 1777728617 | 18.89° C | 66% | 1011.1 hPa | 0 mm | - | 0 W/m² | - |
| 1777727416 | 18.89° C | 64% | 1011.3 hPa | 0 mm | - | 0 W/m² | - |
| 1777724115 | 18.33° C | 65% | 1011.5 hPa | 0 mm | - | 0 W/m² | - |
| 1777723515 | 18.33° C | 66% | 1011.7 hPa | 0 mm | - | 0 W/m² | - |
| 1777719915 | 18.33° C | 67% | 1012.1 hPa | 0 mm | - | 0 W/m² | - |
| 1777719315 | 18.33° C | 67% | 1012 hPa | 0 mm | - | 0 W/m² | - |
| 1777714515 | 20° C | 62% | 1012.1 hPa | 0 mm | - | 0 W/m² | - |
| 1777710915 | 20.56° C | 59% | 1012.3 hPa | 0 mm | - | 0 W/m² | - |
| 1777710316 | 21.11° C | 58% | 1012.3 hPa | 0 mm | - | 0 W/m² | - |
| 1777703715 | 22.78° C | 53% | 1012.1 hPa | 0 mm | - | 53 W/m² | - |
| 1777701016 | 22.78° C | 56% | 1012.2 hPa | 0 mm | - | 172 W/m² | - |
| 1777700416 | 22.78° C | 55% | 1012.3 hPa | 0 mm | - | 151 W/m² | - |
| 1777699817 | 22.78° C | 56% | 1012.4 hPa | 0 mm | - | 135 W/m² | - |
| 1777699514 | 22.78° C | 54% | 1012.3 hPa | 0 mm | - | 120 W/m² | - |
| 1777698017 | 22.78° C | 54% | 1012.4 hPa | 0 mm | - | 132 W/m² | - |
| 1777696514 | 22.78° C | 54% | 1012.7 hPa | 0 mm | - | 132 W/m² | - |
| 1777695915 | 22.78° C | 54% | 1012.8 hPa | 0 mm | - | 142 W/m² | - |
| 1777695016 | 22.78° C | 53% | 1012.9 hPa | 0 mm | - | 158 W/m² | - |
| 1777692617 | 23.33° C | 51% | 1013.4 hPa | 0 mm | - | 202 W/m² | - |
| 1777692315 | 23.33° C | 51% | 1013.5 hPa | 0 mm | - | 209 W/m² | - |
| 1777689016 | 22.78° C | 53% | 1014.4 hPa | 0 mm | - | 320 W/m² | - |
| 1777686016 | 22.22° C | 52% | 1015.3 hPa | 0 mm | - | 163 W/m² | - |
| 1777685115 | 22.22° C | 53% | 1015.5 hPa | 0 mm | - | 183 W/m² | - |
| 1777683617 | 21.67° C | 53% | 1015.9 hPa | 0 mm | - | 262 W/m² | - |
* Rain latest hour (hover to see other rain measurements)
** Current wind speed in m/s (hover to see current wind gust speed)